Time;durP1;ratioP1;P1;durP2;ratioP2;P2;SDS_P1;SDS_P2;PMS_P1;PMS_P2;Temp;Humidity;BMP_temperature;BMP_pressure;BME280_temperature;BME280_humidity;BME280_pressure;Samples;Min_cycle;Max_cycle;Signal;HPM_P1;HPM_P2
2023/08/12 00:01:42;;;;;;;10.80;3.72;;;20.50;99.90;;;;;;5048276;28;20108;-76
2023/08/12 00:04:08;;;;;;;14.90;4.03;;;20.50;99.90;;;;;;5050061;28;20021;-76
2023/08/12 00:06:34;;;;;;;12.27;3.97;;;20.40;99.90;;;;;;5047147;28;20053;-76
2023/08/12 00:08:59;;;;;;;10.52;3.92;;;20.40;99.90;;;;;;5051683;28;20574;-76
2023/08/12 00:11:25;;;;;;;10.35;3.53;;;20.40;99.90;;;;;;5049501;28;20166;-76
2023/08/12 00:13:50;;;;;;;9.20;3.95;;;20.40;99.90;;;;;;5045554;28;20083;-76
2023/08/12 00:16:16;;;;;;;8.50;3.60;;;20.50;99.90;;;;;;5045674;28;20029;-76
2023/08/12 00:18:42;;;;;;;13.85;4.05;;;20.50;99.90;;;;;;5047799;28;20025;-76
2023/08/12 00:21:11;;;;;;;14.02;3.72;;;20.50;99.90;;;;;;5052479;28;20108;-76
2023/08/12 00:23:40;;;;;;;10.25;3.83;;;20.50;99.90;;;;;;5051783;28;20454;-76
2023/08/12 00:26:06;;;;;;;10.30;3.85;;;20.50;99.90;;;;;;5049739;28;20025;-76
2023/08/12 00:28:32;;;;;;;14.43;3.95;;;20.50;99.90;;;;;;5044156;28;20048;-76
2023/08/12 00:30:57;;;;;;;10.98;4.05;;;20.50;99.90;;;;;;5053660;28;20021;-76
2023/08/12 00:33:23;;;;;;;11.23;4.13;;;20.40;99.90;;;;;;5052371;28;20026;-76
2023/08/12 00:35:49;;;;;;;18.40;5.00;;;20.40;99.90;;;;;;5050217;28;20025;-76
2023/08/12 00:38:14;;;;;;;10.45;4.68;;;20.40;99.90;;;;;;5052017;28;20051;-76
2023/08/12 00:40:40;;;;;;;10.68;4.45;;;20.40;99.90;;;;;;5054068;28;20029;-77
2023/08/12 00:43:06;;;;;;;10.98;4.70;;;20.40;99.90;;;;;;5052355;28;20014;-75
2023/08/12 00:45:32;;;;;;;11.38;4.70;;;20.40;99.90;;;;;;5059444;28;20029;-76
2023/08/12 00:47:58;;;;;;;18.67;4.88;;;20.40;99.90;;;;;;5063788;28;20023;-76
2023/08/12 00:50:24;;;;;;;13.80;4.90;;;20.40;99.90;;;;;;5058215;28;20017;-76
2023/08/12 00:52:50;;;;;;;14.02;5.00;;;20.40;99.90;;;;;;5053957;28;20033;-75
2023/08/12 00:55:17;;;;;;;11.88;4.80;;;20.40;99.90;;;;;;5040598;28;20024;-75
2023/08/12 00:57:43;;;;;;;16.10;5.28;;;20.30;99.90;;;;;;5052537;28;20163;-75
2023/08/12 01:00:12;;;;;;;12.88;5.00;;;20.40;99.90;;;;;;5050173;28;20443;-75
2023/08/12 01:02:40;;;;;;;13.02;4.75;;;20.40;99.90;;;;;;5045742;28;20052;-75
2023/08/12 01:05:06;;;;;;;13.02;4.75;;;20.40;99.90;;;;;;5049003;28;20013;-76
2023/08/12 01:07:33;;;;;;;14.10;5.47;;;20.40;99.90;;;;;;5050397;28;20111;-76
2023/08/12 01:09:58;;;;;;;13.82;6.18;;;20.40;99.90;;;;;;5050101;28;20391;-75
2023/08/12 01:12:33;;;;;;;12.13;5.70;;;20.40;99.90;;;;;;5047167;28;20100;-76
2023/08/12 01:15:08;;;;;;;13.77;5.80;;;20.40;99.90;;;;;;5050364;28;20044;-75
2023/08/12 01:17:36;;;;;;;15.52;5.68;;;20.40;99.90;;;;;;5042209;28;20029;-75
2023/08/12 01:20:24;;;;;;;10.20;5.32;;;20.40;99.90;;;;;;5045888;28;20144;-75
2023/08/12 01:22:52;;;;;;;12.48;5.82;;;20.40;99.90;;;;;;5050619;28;20041;-75
2023/08/12 01:25:17;;;;;;;10.77;5.57;;;20.40;99.90;;;;;;5046974;28;20060;-76
2023/08/12 01:27:43;;;;;;;13.75;5.53;;;20.40;99.90;;;;;;5052519;28;20115;-76
2023/08/12 01:30:10;;;;;;;17.13;6.18;;;20.40;99.90;;;;;;5051565;28;20354;-76
2023/08/12 01:32:55;;;;;;;12.68;5.68;;;20.40;99.90;;;;;;5045492;28;20025;-76
2023/08/12 01:35:25;;;;;;;13.07;5.75;;;20.40;99.90;;;;;;5051680;28;20415;-75
2023/08/12 01:37:52;;;;;;;12.05;5.97;;;20.40;99.90;;;;;;5050885;28;20096;-76
2023/08/12 01:40:20;;;;;;;11.07;6.00;;;20.40;99.90;;;;;;5045639;28;20431;-76
2023/08/12 01:42:46;;;;;;;12.65;6.25;;;20.40;99.90;;;;;;5049172;28;20100;-76
2023/08/12 01:45:12;;;;;;;13.68;6.82;;;20.40;99.90;;;;;;5049678;28;20025;-76
2023/08/12 01:47:38;;;;;;;15.40;6.55;;;20.40;99.90;;;;;;5047025;28;20028;-75
2023/08/12 01:50:04;;;;;;;12.80;6.47;;;20.40;99.90;;;;;;5051179;28;20059;-76
2023/08/12 01:52:30;;;;;;;15.55;7.28;;;20.50;99.90;;;;;;5045997;28;20112;-75
2023/08/12 01:54:55;;;;;;;14.95;6.45;;;20.50;99.90;;;;;;5051222;28;20097;-75
2023/08/12 01:57:21;;;;;;;13.93;7.15;;;20.50;99.90;;;;;;5051741;28;20368;-75
2023/08/12 01:59:47;;;;;;;13.70;7.30;;;20.50;99.90;;;;;;5048778;28;20046;-75
2023/08/12 02:02:13;;;;;;;16.48;7.30;;;20.50;99.90;;;;;;5051150;28;20392;-76
2023/08/12 02:04:40;;;;;;;17.85;8.02;;;20.50;99.90;;;;;;5041236;28;20027;-76
2023/08/12 02:07:06;;;;;;;15.60;6.88;;;20.50;99.90;;;;;;5039053;28;20025;-76
2023/08/12 02:09:32;;;;;;;15.35;7.22;;;20.50;99.90;;;;;;5040990;28;20044;-76
2023/08/12 02:11:57;;;;;;;13.38;7.10;;;20.50;99.90;;;;;;5041466;28;20036;-75
2023/08/12 02:14:23;;;;;;;17.00;7.50;;;20.50;99.90;;;;;;5045244;28;20032;-76
2023/08/12 02:16:49;;;;;;;20.45;7.25;;;20.50;99.90;;;;;;5045164;28;20066;-75
2023/08/12 02:19:14;;;;;;;17.27;7.28;;;20.50;99.90;;;;;;5045774;28;20473;-76
2023/08/12 02:21:41;;;;;;;14.82;6.88;;;20.50;99.90;;;;;;5046498;28;20036;-76
2023/08/12 02:24:07;;;;;;;15.32;6.78;;;20.60;99.90;;;;;;5051844;28;20024;-75
2023/08/12 02:26:33;;;;;;;14.40;7.25;;;20.60;99.90;;;;;;5039945;28;20040;-76
2023/08/12 02:28:58;;;;;;;18.30;7.05;;;20.60;99.90;;;;;;5043199;28;20361;-76
2023/08/12 02:31:24;;;;;;;13.73;6.45;;;20.60;99.90;;;;;;5047830;28;20033;-75
2023/08/12 02:33:50;;;;;;;14.55;7.53;;;20.60;99.90;;;;;;5042654;28;20156;-76
2023/08/12 02:36:16;;;;;;;14.18;7.78;;;20.60;99.90;;;;;;5046537;28;20115;-76
2023/08/12 02:38:42;;;;;;;16.67;8.00;;;20.60;99.90;;;;;;5050735;28;20388;-75
2023/08/12 02:41:07;;;;;;;14.02;7.53;;;20.60;99.90;;;;;;5051610;28;20033;-75
2023/08/12 02:43:33;;;;;;;14.30;7.60;;;20.60;99.90;;;;;;5051566;28;20025;-75
2023/08/12 02:45:59;;;;;;;13.63;7.65;;;20.60;99.90;;;;;;5049748;28;20094;-75
2023/08/12 02:48:24;;;;;;;15.95;7.97;;;20.50;99.90;;;;;;5050320;28;20032;-75
2023/08/12 02:50:50;;;;;;;17.80;8.55;;;20.50;99.90;;;;;;5050026;28;20033;-76
2023/08/12 02:53:16;;;;;;;16.40;8.63;;;20.50;99.90;;;;;;5051810;28;20024;-76
2023/08/12 02:55:41;;;;;;;22.15;9.85;;;20.50;99.90;;;;;;5049878;28;20024;-75
2023/08/12 02:58:07;;;;;;;19.55;9.27;;;20.50;99.90;;;;;;5044725;28;20493;-75
2023/08/12 03:00:33;;;;;;;20.83;9.48;;;20.50;99.90;;;;;;5045321;28;20044;-75
2023/08/12 03:02:59;;;;;;;17.10;9.52;;;20.50;99.90;;;;;;5047250;28;20075;-75
2023/08/12 03:05:24;;;;;;;17.13;9.75;;;20.40;99.90;;;;;;5041675;28;20431;-75
2023/08/12 03:07:53;;;;;;;20.60;10.20;;;20.40;99.90;;;;;;5047112;28;20562;-75
2023/08/12 03:10:19;;;;;;;18.73;10.48;;;20.40;99.90;;;;;;5046240;28;20037;-76
2023/08/12 03:12:45;;;;;;;19.85;9.73;;;20.40;99.90;;;;;;5046613;28;20032;-75
2023/08/12 03:15:11;;;;;;;21.45;10.43;;;20.40;99.90;;;;;;5050482;28;20025;-75
2023/08/12 03:17:39;;;;;;;24.00;10.45;;;20.40;99.90;;;;;;5042802;28;20048;-75
2023/08/12 03:20:06;;;;;;;21.55;10.50;;;20.40;99.90;;;;;;5049731;28;20074;-75
2023/08/12 03:22:32;;;;;;;19.75;9.77;;;20.40;99.90;;;;;;5043462;28;20029;-75
2023/08/12 03:24:58;;;;;;;18.98;10.10;;;20.40;99.90;;;;;;5045284;28;20233;-76
2023/08/12 03:27:23;;;;;;;19.42;10.05;;;20.40;99.90;;;;;;5039411;28;20021;-75
2023/08/12 03:29:49;;;;;;;17.38;10.27;;;20.40;99.90;;;;;;5043676;28;20021;-75
2023/08/12 03:32:15;;;;;;;20.27;9.27;;;20.40;99.90;;;;;;5045851;28;20021;-75
2023/08/12 03:34:40;;;;;;;20.95;9.07;;;20.40;99.90;;;;;;5049719;28;20029;-75
2023/08/12 03:37:06;;;;;;;20.20;9.63;;;20.40;99.90;;;;;;5045080;28;20037;-76
2023/08/12 03:39:31;;;;;;;21.80;10.88;;;20.30;99.90;;;;;;5032627;28;20036;-76
2023/08/12 03:41:57;;;;;;;15.75;8.82;;;20.40;99.90;;;;;;5041650;28;20021;-75
2023/08/12 03:44:23;;;;;;;17.33;9.35;;;20.30;99.90;;;;;;5050110;28;20021;-75
2023/08/12 03:46:48;;;;;;;19.15;9.38;;;20.30;99.90;;;;;;5047020;28;20021;-75
2023/08/12 03:49:14;;;;;;;18.88;9.25;;;20.30;99.90;;;;;;5042733;28;20040;-75
2023/08/12 03:51:40;;;;;;;18.65;9.88;;;20.30;99.90;;;;;;5045989;28;20033;-75
2023/08/12 03:54:05;;;;;;;18.60;9.32;;;20.30;99.90;;;;;;5047072;28;20025;-75
2023/08/12 03:56:31;;;;;;;20.95;10.25;;;20.30;99.90;;;;;;5049419;28;20025;-76
2023/08/12 03:58:57;;;;;;;19.00;9.93;;;20.20;99.90;;;;;;5050268;28;20057;-75
2023/08/12 04:01:22;;;;;;;16.08;9.95;;;20.20;99.90;;;;;;5044645;28;20036;-76
2023/08/12 04:03:48;;;;;;;21.38;10.50;;;20.30;99.90;;;;;;5049886;28;20041;-75
2023/08/12 04:06:14;;;;;;;18.27;10.38;;;20.20;99.90;;;;;;5044767;28;20120;-75
2023/08/12 04:08:39;;;;;;;17.88;9.93;;;20.20;99.90;;;;;;5048823;28;20076;-75
2023/08/12 04:11:05;;;;;;;16.40;10.70;;;20.30;99.90;;;;;;5044454;28;20045;-75
2023/08/12 04:13:30;;;;;;;19.75;11.60;;;20.20;99.90;;;;;;5042173;28;20021;-75
2023/08/12 04:15:56;;;;;;;19.25;12.07;;;20.30;99.90;;;;;;5049158;28;20060;-75
2023/08/12 04:18:22;;;;;;;20.90;12.23;;;20.30;99.90;;;;;;5049082;28;20067;-77
2023/08/12 04:20:52;;;;;;;22.25;12.10;;;20.30;99.90;;;;;;5048082;28;20471;-75
2023/08/12 04:23:18;;;;;;;24.23;11.90;;;20.30;99.90;;;;;;5045672;28;20040;-75
2023/08/12 04:25:47;;;;;;;21.77;12.63;;;20.30;99.90;;;;;;5039594;28;20071;-76
2023/08/12 04:28:14;;;;;;;22.13;12.40;;;20.30;99.90;;;;;;5036054;28;20017;-75
2023/08/12 04:30:43;;;;;;;26.98;13.38;;;20.30;99.90;;;;;;5043662;28;20112;-75
2023/08/12 04:33:09;;;;;;;25.65;13.70;;;20.40;99.90;;;;;;5042938;28;20032;-76
2023/08/12 04:35:35;;;;;;;26.73;14.10;;;20.40;99.90;;;;;;5039449;28;20021;-75
2023/08/12 04:38:01;;;;;;;26.40;14.50;;;20.40;99.90;;;;;;5043210;28;20416;-75
2023/08/12 04:40:26;;;;;;;22.63;13.45;;;20.40;99.90;;;;;;5046525;28;20021;-76
2023/08/12 04:42:52;;;;;;;25.83;13.45;;;20.40;99.90;;;;;;5048840;28;20029;-76
2023/08/12 04:45:17;;;;;;;26.10;13.95;;;20.40;99.90;;;;;;5051259;28;20040;-76
2023/08/12 04:47:43;;;;;;;26.23;13.18;;;20.40;99.90;;;;;;5049349;28;20044;-76
2023/08/12 04:50:09;;;;;;;26.00;14.70;;;20.50;99.90;;;;;;5052911;28;20484;-76
2023/08/12 04:52:34;;;;;;;26.80;14.50;;;20.50;99.90;;;;;;5050967;28;20025;-75
2023/08/12 04:55:00;;;;;;;21.92;13.57;;;20.50;99.90;;;;;;5040721;28;20045;-76
2023/08/12 04:57:26;;;;;;;23.38;13.88;;;20.50;99.90;;;;;;5046102;28;20450;-75
2023/08/12 04:59:52;;;;;;;28.00;14.40;;;20.50;99.90;;;;;;5053011;28;20033;-76
2023/08/12 05:02:20;;;;;;;24.63;13.77;;;20.50;99.90;;;;;;5049963;28;20079;-76
2023/08/12 05:04:50;;;;;;;27.52;13.85;;;20.40;99.90;;;;;;5050072;28;20032;-75
2023/08/12 05:07:16;;;;;;;23.13;13.38;;;20.40;99.90;;;;;;5046108;28;20033;-75
2023/08/12 05:09:45;;;;;;;23.00;14.45;;;20.40;99.90;;;;;;5048158;28;20039;-75
2023/08/12 05:12:11;;;;;;;28.50;15.02;;;20.40;99.90;;;;;;5048641;28;20060;-75
2023/08/12 05:14:39;;;;;;;26.60;14.48;;;20.50;99.90;;;;;;5050552;28;20033;-76
2023/08/12 05:17:05;;;;;;;34.20;16.10;;;20.50;99.90;;;;;;5050833;28;20026;-75
2023/08/12 05:19:31;;;;;;;34.90;17.40;;;20.40;99.90;;;;;;5045034;28;20025;-76
2023/08/12 05:21:56;;;;;;;30.50;16.85;;;20.40;99.90;;;;;;5045208;28;20029;-76
2023/08/12 05:24:22;;;;;;;29.10;16.45;;;20.40;99.90;;;;;;5050593;28;20072;-77
2023/08/12 05:26:47;;;;;;;32.15;18.48;;;20.40;99.90;;;;;;5038174;28;20044;-77
2023/08/12 05:29:13;;;;;;;33.00;19.02;;;20.40;99.90;;;;;;5048835;28;20060;-76
2023/08/12 05:31:39;;;;;;;29.77;18.80;;;20.30;99.90;;;;;;5051056;28;20456;-76
2023/08/12 05:34:04;;;;;;;31.27;19.33;;;20.30;99.90;;;;;;5051598;28;20025;-76
2023/08/12 05:36:30;;;;;;;29.35;19.02;;;20.30;99.90;;;;;;5049099;28;20079;-76
2023/08/12 05:38:56;;;;;;;29.85;20.05;;;20.30;99.90;;;;;;5042296;28;20029;-76
2023/08/12 05:41:22;;;;;;;31.77;20.42;;;20.30;99.90;;;;;;5043413;28;20238;-76
2023/08/12 05:43:48;;;;;;;29.33;19.75;;;20.30;99.90;;;;;;5040856;28;20025;-75
2023/08/12 05:46:14;;;;;;;31.73;19.08;;;20.30;99.90;;;;;;5042876;28;20051;-75
2023/08/12 05:48:40;;;;;;;28.58;19.70;;;20.30;99.90;;;;;;5048256;28;20025;-76
2023/08/12 05:51:06;;;;;;;26.85;19.08;;;20.20;99.90;;;;;;5048216;28;20373;-76
2023/08/12 05:53:32;;;;;;;28.45;17.33;;;20.20;99.90;;;;;;5047639;28;20032;-76
2023/08/12 05:55:58;;;;;;;26.73;16.65;;;20.20;99.90;;;;;;5050707;28;20033;-76
2023/08/12 05:58:24;;;;;;;26.27;15.93;;;20.20;99.90;;;;;;5038149;28;20056;-76
2023/08/12 06:00:50;;;;;;;23.88;16.00;;;20.20;99.90;;;;;;5050684;28;20028;-76
2023/08/12 06:03:15;;;;;;;21.70;15.27;;;20.20;99.90;;;;;;5047201;28;20060;-76
2023/08/12 06:05:44;;;;;;;20.63;14.50;;;20.20;99.90;;;;;;5046670;28;20024;-76
2023/08/12 06:08:10;;;;;;;21.25;14.43;;;20.20;99.90;;;;;;5040615;28;20052;-76
2023/08/12 06:10:35;;;;;;;20.38;13.45;;;20.20;99.90;;;;;;5048887;28;20478;-75
2023/08/12 06:13:01;;;;;;;20.15;13.25;;;20.20;99.90;;;;;;5038088;28;20035;-76
2023/08/12 06:15:27;;;;;;;21.60;14.07;;;20.30;99.90;;;;;;5038400;28;20144;-76
2023/08/12 06:17:52;;;;;;;19.98;13.52;;;20.30;99.90;;;;;;5048264;28;20399;-76
2023/08/12 06:20:18;;;;;;;20.50;13.30;;;20.20;99.90;;;;;;5044192;28;20035;-75
2023/08/12 06:22:43;;;;;;;17.55;12.80;;;20.20;99.90;;;;;;5050109;28;20488;-75
2023/08/12 06:25:09;;;;;;;18.92;12.70;;;20.20;99.90;;;;;;5041598;28;20469;-75
2023/08/12 06:27:35;;;;;;;23.17;13.70;;;20.20;99.90;;;;;;5045984;28;20055;-75
2023/08/12 06:30:00;;;;;;;20.70;13.52;;;20.20;99.90;;;;;;5041191;28;20383;-76
2023/08/12 06:32:26;;;;;;;21.70;12.73;;;20.20;99.90;;;;;;5044271;28;20044;-76
2023/08/12 06:34:51;;;;;;;18.05;12.13;;;20.30;99.90;;;;;;5040254;28;20488;-75
2023/08/12 06:37:17;;;;;;;20.10;12.02;;;20.30;99.90;;;;;;5040387;28;20099;-75
2023/08/12 06:39:43;;;;;;;16.25;11.02;;;20.20;99.90;;;;;;5049114;28;20335;-75
2023/08/12 06:42:08;;;;;;;13.75;10.18;;;20.20;99.90;;;;;;5047051;28;20032;-75
2023/08/12 06:44:34;;;;;;;13.23;9.70;;;20.20;99.90;;;;;;5048383;28;20380;-75
2023/08/12 06:46:59;;;;;;;14.77;8.68;;;20.20;99.90;;;;;;5050433;28;20530;-75
2023/08/12 06:49:25;;;;;;;12.35;7.97;;;20.30;99.90;;;;;;5049292;28;20247;-75
2023/08/12 06:51:51;;;;;;;9.82;7.47;;;20.20;99.90;;;;;;5050105;28;20037;-75
2023/08/12 06:54:17;;;;;;;9.15;7.20;;;20.20;99.90;;;;;;5045233;28;20033;-75
2023/08/12 06:56:42;;;;;;;8.77;6.60;;;20.20;99.90;;;;;;5046877;28;20021;-75
2023/08/12 06:59:08;;;;;;;7.68;5.93;;;20.20;99.90;;;;;;5047657;28;20404;-75
2023/08/12 07:01:34;;;;;;;6.85;5.18;;;20.20;99.90;;;;;;5046350;28;20025;-75
2023/08/12 07:04:00;;;;;;;9.77;3.65;;;20.20;99.90;;;;;;5045194;28;20025;-75
2023/08/12 07:06:25;;;;;;;7.22;2.80;;;20.10;99.90;;;;;;5046395;28;20091;-75
2023/08/12 07:08:51;;;;;;;6.72;2.00;;;19.90;99.90;;;;;;5038561;28;20571;-75
2023/08/12 07:11:16;;;;;;;9.60;2.53;;;19.60;99.90;;;;;;5044851;28;20036;-75
2023/08/12 07:13:46;;;;;;;6.20;2.45;;;19.30;99.90;;;;;;5044661;28;20021;-75
2023/08/12 07:16:11;;;;;;;5.95;2.30;;;19.20;99.90;;;;;;5047508;28;20024;-76
2023/08/12 07:18:37;;;;;;;8.57;2.60;;;19.10;99.90;;;;;;5047459;28;20025;-76
2023/08/12 07:21:03;;;;;;;8.80;2.00;;;19.00;99.90;;;;;;5049412;28;20025;-75
2023/08/12 07:23:29;;;;;;;11.02;2.40;;;18.90;99.90;;;;;;5053689;28;20073;-80
2023/08/12 07:25:54;;;;;;;5.53;1.95;;;18.80;99.90;;;;;;5050977;28;20045;-77
2023/08/12 07:28:20;;;;;;;6.25;1.98;;;18.70;99.90;;;;;;5049002;28;21189;-77
2023/08/12 07:30:47;;;;;;;8.80;2.00;;;18.60;99.90;;;;;;5048811;28;20415;-77
2023/08/12 07:33:13;;;;;;;6.22;1.95;;;18.60;99.90;;;;;;5049779;28;20043;-77
2023/08/12 07:35:38;;;;;;;7.20;1.90;;;18.60;99.90;;;;;;5050342;28;20577;-77
2023/08/12 07:38:04;;;;;;;5.72;2.05;;;18.50;99.90;;;;;;5050968;28;20075;-78
2023/08/12 07:40:30;;;;;;;6.03;1.90;;;18.50;99.90;;;;;;5049623;28;20392;-76
2023/08/12 07:42:55;;;;;;;9.90;2.35;;;18.50;99.90;;;;;;5049542;28;20017;-76
2023/08/12 07:45:22;;;;;;;9.90;2.35;;;18.60;99.90;;;;;;5045760;28;20484;-76
2023/08/12 07:47:49;;;;;;;6.95;1.90;;;18.60;99.90;;;;;;5047487;28;20024;-76
2023/08/12 07:50:15;;;;;;;7.28;2.22;;;18.50;99.90;;;;;;5043154;28;20036;-76
2023/08/12 07:52:41;;;;;;;8.40;2.53;;;18.60;99.90;;;;;;5046271;28;20025;-77
2023/08/12 07:55:06;;;;;;;8.30;2.20;;;18.60;99.90;;;;;;5047435;28;20118;-76
2023/08/12 07:57:32;;;;;;;8.73;2.17;;;18.60;99.90;;;;;;5039565;28;20030;-77
2023/08/12 07:59:58;;;;;;;8.52;2.10;;;18.60;99.90;;;;;;5042834;28;20037;-77
2023/08/12 08:02:23;;;;;;;8.25;2.13;;;18.60;99.90;;;;;;5044633;28;20033;-77
2023/08/12 08:04:49;;;;;;;8.68;2.63;;;18.60;99.90;;;;;;5047039;28;20032;-77
2023/08/12 08:07:16;;;;;;;7.22;2.30;;;18.60;99.90;;;;;;5051118;28;20060;-76
2023/08/12 08:09:42;;;;;;;9.65;2.50;;;18.50;99.90;;;;;;5051066;28;20076;-76
2023/08/12 08:12:09;;;;;;;13.30;2.47;;;18.60;99.90;;;;;;5051759;28;20063;-76
2023/08/12 08:14:35;;;;;;;8.98;2.42;;;18.70;99.90;;;;;;5054012;28;20017;-76
2023/08/12 08:17:01;;;;;;;6.53;1.80;;;18.70;99.90;;;;;;5048577;28;20154;-76
2023/08/12 08:19:27;;;;;;;11.13;2.53;;;18.70;99.90;;;;;;5046266;28;20021;-76
2023/08/12 08:21:53;;;;;;;6.70;2.20;;;18.80;99.90;;;;;;5047645;28;20090;-76
2023/08/12 08:24:18;;;;;;;10.80;2.17;;;18.90;99.90;;;;;;5052931;28;20033;-76
2023/08/12 08:26:46;;;;;;;5.70;2.05;;;18.90;99.90;;;;;;5052295;28;20025;-76
2023/08/12 08:29:12;;;;;;;9.50;2.53;;;19.00;99.90;;;;;;5043008;28;20030;-76
2023/08/12 08:31:38;;;;;;;5.63;2.30;;;19.10;99.90;;;;;;5051575;28;20353;-76
2023/08/12 08:34:04;;;;;;;9.77;2.47;;;19.20;99.90;;;;;;5045964;28;20033;-75
2023/08/12 08:36:30;;;;;;;10.63;2.40;;;19.20;99.90;;;;;;5041112;28;20437;-76
2023/08/12 08:38:55;;;;;;;8.98;2.30;;;19.30;99.90;;;;;;5051031;28;20024;-76
2023/08/12 08:41:21;;;;;;;11.80;2.40;;;19.30;99.90;;;;;;5048785;28;20029;-76
2023/08/12 08:43:48;;;;;;;6.45;2.08;;;19.30;99.90;;;;;;5050588;28;20032;-76
2023/08/12 08:46:17;;;;;;;9.88;2.63;;;19.40;99.90;;;;;;5046466;28;20031;-76
2023/08/12 08:48:44;;;;;;;17.88;2.97;;;19.50;99.90;;;;;;5052734;28;20029;-76
2023/08/12 08:51:13;;;;;;;8.52;2.55;;;19.60;99.90;;;;;;5054527;28;20430;-76
2023/08/12 08:53:39;;;;;;;10.55;2.40;;;19.80;99.90;;;;;;5052531;28;20087;-76
2023/08/12 08:56:07;;;;;;;12.10;2.65;;;20.00;99.90;;;;;;5041649;28;20020;-78
2023/08/12 08:58:33;;;;;;;10.82;2.58;;;20.20;99.90;;;;;;5052859;28;20049;-78
2023/08/12 09:00:59;;;;;;;11.88;2.83;;;20.50;99.90;;;;;;5046113;28;20053;-77
2023/08/12 09:03:26;;;;;;;14.00;2.35;;;20.60;99.90;;;;;;5047815;28;20040;-78
2023/08/12 09:05:55;;;;;;;11.75;2.47;;;20.70;99.90;;;;;;5045673;28;20028;-77
2023/08/12 09:08:21;;;;;;;30.02;17.35;;;20.80;99.90;;;;;;5046009;28;20488;-76
2023/08/12 09:10:47;;;;;;;67.97;47.42;;;21.00;99.90;;;;;;5049084;28;20361;-77
2023/08/12 09:13:14;;;;;;;12.77;3.70;;;21.10;99.90;;;;;;5047229;28;20013;-76
2023/08/12 09:15:40;;;;;;;7.93;2.13;;;21.30;99.90;;;;;;5051262;28;20017;-77
2023/08/12 09:18:06;;;;;;;13.35;2.33;;;21.40;99.90;;;;;;5047374;28;20380;-77
2023/08/12 09:20:33;;;;;;;9.40;2.35;;;21.50;99.90;;;;;;5049827;28;20241;-76
2023/08/12 09:23:00;;;;;;;7.15;2.10;;;21.50;99.90;;;;;;5052468;28;20049;-77
2023/08/12 09:25:29;;;;;;;10.32;2.55;;;21.60;99.90;;;;;;5038022;28;20049;-76
2023/08/12 09:27:56;;;;;;;9.48;1.98;;;21.50;99.90;;;;;;5050347;28;20357;-76
2023/08/12 09:30:22;;;;;;;8.95;2.28;;;21.50;99.90;;;;;;5053334;28;20036;-76
2023/08/12 09:33:03;;;;;;;9.98;2.20;;;21.50;99.90;;;;;;5053718;28;20163;-75
2023/08/12 09:35:40;;;;;;;7.90;2.25;;;21.60;99.90;;;;;;5053373;28;20373;-76
2023/08/12 09:38:12;;;;;;;9.35;2.05;;;21.60;99.90;;;;;;5052861;28;20024;-76
2023/08/12 09:40:38;;;;;;;9.93;2.25;;;21.70;99.90;;;;;;5047099;28;20021;-76
2023/08/12 09:43:04;;;;;;;10.00;2.20;;;21.70;99.90;;;;;;5052404;28;20032;-76
2023/08/12 09:45:31;;;;;;;7.07;1.80;;;21.60;99.90;;;;;;5052173;28;20009;-76
2023/08/12 09:47:58;;;;;;;9.55;1.95;;;21.70;99.90;;;;;;5041270;28;20021;-76
2023/08/12 09:50:25;;;;;;;9.18;2.38;;;21.70;99.90;;;;;;5051182;28;20121;-76
2023/08/12 09:52:52;;;;;;;11.82;2.58;;;21.70;99.90;;;;;;5051816;28;20028;-76
2023/08/12 09:55:19;;;;;;;11.05;2.35;;;21.70;99.90;;;;;;5050670;28;20016;-76
2023/08/12 09:57:49;;;;;;;11.30;2.72;;;21.70;99.90;;;;;;5053347;28;20021;-76
2023/08/12 10:00:19;;;;;;;11.45;2.17;;;21.70;99.90;;;;;;5052001;28;20045;-76
2023/08/12 10:02:46;;;;;;;11.20;2.65;;;21.80;99.90;;;;;;5046483;28;20013;-76
2023/08/12 10:05:16;;;;;;;15.35;2.28;;;21.90;99.90;;;;;;5051194;28;20018;-76
2023/08/12 10:07:43;;;;;;;12.82;2.85;;;22.00;99.90;;;;;;5046028;28;20017;-76
2023/08/12 10:10:09;;;;;;;11.70;2.30;;;22.00;99.90;;;;;;5041076;28;20024;-76
2023/08/12 10:12:37;;;;;;;10.40;2.75;;;22.10;99.90;;;;;;5047430;28;20423;-76
2023/08/12 10:15:05;;;;;;;14.38;2.55;;;22.30;99.90;;;;;;5050750;28;20388;-76
2023/08/12 10:17:32;;;;;;;16.30;2.70;;;22.40;99.90;;;;;;5051209;28;20055;-76
2023/08/12 10:19:58;;;;;;;10.35;2.60;;;22.60;99.90;;;;;;5050318;28;20511;-76
2023/08/12 10:22:26;;;;;;;11.30;2.67;;;22.70;99.90;;;;;;5051479;28;20029;-76
2023/08/12 10:24:52;;;;;;;10.57;2.78;;;22.70;99.90;;;;;;5050389;28;20016;-76
2023/08/12 10:27:18;;;;;;;10.95;2.40;;;22.80;99.90;;;;;;5051249;28;20028;-76
2023/08/12 10:29:44;;;;;;;11.82;2.67;;;22.80;99.90;;;;;;5050671;28;20519;-77
2023/08/12 10:32:10;;;;;;;10.52;2.60;;;22.80;99.90;;;;;;5040821;28;20029;-76
2023/08/12 10:34:35;;;;;;;9.95;3.00;;;22.80;99.90;;;;;;5050917;28;20021;-76
2023/08/12 10:37:02;;;;;;;11.75;2.80;;;23.00;99.90;;;;;;5052127;28;20029;-76
2023/08/12 10:39:31;;;;;;;8.90;2.72;;;23.10;99.90;;;;;;5044355;28;20018;-75
2023/08/12 10:41:57;;;;;;;10.50;2.40;;;23.20;99.90;;;;;;5050215;28;20387;-76
2023/08/12 10:44:27;;;;;;;12.18;3.00;;;23.40;99.90;;;;;;5051695;28;20088;-76
2023/08/12 10:46:54;;;;;;;14.60;3.45;;;23.50;99.90;;;;;;5051955;28;20472;-75
2023/08/12 10:49:23;;;;;;;11.38;2.80;;;23.70;99.90;;;;;;5052995;28;20027;-76
2023/08/12 10:51:53;;;;;;;10.20;2.63;;;23.70;99.90;;;;;;5051811;28;20078;-76
2023/08/12 10:54:31;;;;;;;14.95;3.13;;;23.60;99.90;;;;;;5052052;28;20029;-75
2023/08/12 10:57:03;;;;;;;16.58;2.65;;;23.50;99.90;;;;;;5052787;28;20082;-77
2023/08/12 10:59:49;;;;;;;15.68;2.65;;;23.60;99.90;;;;;;5065049;28;20053;-74
2023/08/12 11:02:24;;;;;;;12.95;3.10;;;23.70;99.90;;;;;;5052054;28;20055;-77
2023/08/12 11:04:54;;;;;;;11.27;2.60;;;23.70;99.90;;;;;;5054861;28;20480;-77
2023/08/12 11:07:21;;;;;;;12.15;2.75;;;23.70;99.90;;;;;;5051943;28;20025;-76
2023/08/12 11:09:54;;;;;;;11.57;2.65;;;23.80;99.90;;;;;;5051269;28;20017;-76
2023/08/12 11:12:35;;;;;;;16.20;3.00;;;23.80;99.90;;;;;;5051691;28;20091;-76
2023/08/12 11:15:02;;;;;;;14.27;2.50;;;23.90;99.90;;;;;;5051611;28;20059;-75
2023/08/12 11:17:31;;;;;;;13.70;2.70;;;23.90;99.90;;;;;;5050823;28;20039;-73
2023/08/12 11:19:58;;;;;;;11.82;2.33;;;23.90;99.90;;;;;;5050473;28;20052;-73
2023/08/12 11:22:25;;;;;;;13.77;2.55;;;24.00;99.90;;;;;;5050936;28;20029;-74
2023/08/12 11:24:51;;;;;;;15.57;2.70;;;24.10;99.90;;;;;;5046663;28;20037;-76
2023/08/12 11:27:17;;;;;;;30.02;13.82;;;24.20;99.90;;;;;;5049773;28;20557;-77
2023/08/12 11:29:44;;;;;;;26.55;15.15;;;24.40;99.90;;;;;;5051194;28;20024;-75
2023/08/12 11:32:09;;;;;;;14.30;3.10;;;24.50;99.90;;;;;;5045982;28;20120;-75
2023/08/12 11:34:35;;;;;;;7.43;2.70;;;24.60;99.90;;;;;;5046091;28;20105;-74
2023/08/12 11:37:03;;;;;;;16.05;3.42;;;24.60;99.90;;;;;;5051781;28;20021;-74
2023/08/12 11:39:29;;;;;;;40.42;24.65;;;24.60;99.90;;;;;;5044095;28;20029;-73
2023/08/12 11:41:55;;;;;;;13.10;3.60;;;24.50;99.90;;;;;;5042720;28;20021;-76
2023/08/12 11:44:22;;;;;;;12.45;3.00;;;24.40;99.90;;;;;;5044408;28;20029;-78
2023/08/12 11:46:49;;;;;;;12.55;3.13;;;24.30;99.90;;;;;;5054842;28;20116;-78
2023/08/12 11:49:14;;;;;;;11.38;2.65;;;24.40;99.90;;;;;;5055900;28;20135;-77
2023/08/12 11:51:42;;;;;;;12.07;2.95;;;24.60;99.90;;;;;;5057577;28;20092;-76
2023/08/12 11:54:08;;;;;;;13.45;2.80;;;24.80;99.90;;;;;;5053110;28;20017;-77
2023/08/12 11:56:33;;;;;;;15.98;2.95;;;24.80;99.90;;;;;;5056766;28;20081;-76
2023/08/12 11:58:59;;;;;;;14.55;2.90;;;24.80;99.90;;;;;;5054829;28;20052;-76
2023/08/12 12:01:25;;;;;;;17.05;3.63;;;24.70;99.90;;;;;;5058295;28;20036;-76
2023/08/12 12:03:54;;;;;;;12.80;2.70;;;24.70;99.90;;;;;;5054220;28;20021;-73
2023/08/12 12:06:38;;;;;;;29.63;16.60;;;24.70;99.90;;;;;;5053647;28;20096;-73
2023/08/12 12:09:09;;;;;;;13.93;3.00;;;24.90;99.90;;;;;;5044243;28;20087;-75
2023/08/12 12:11:39;;;;;;;15.20;5.28;;;24.80;99.90;;;;;;5051841;28;20025;-76
2023/08/12 12:14:06;;;;;;;19.27;5.55;;;24.70;99.90;;;;;;5051205;28;20036;-78
2023/08/12 12:16:43;;;;;;;13.75;2.90;;;24.60;99.90;;;;;;5051474;28;20395;-77
2023/08/12 12:19:17;;;;;;;13.75;2.97;;;24.60;99.90;;;;;;5043977;28;20022;-74
2023/08/12 12:21:45;;;;;;;15.93;3.35;;;24.60;99.90;;;;;;5046572;28;20025;-74
2023/08/12 12:24:11;;;;;;;19.05;3.40;;;24.50;99.90;;;;;;5050210;28;20025;-74
2023/08/12 12:26:37;;;;;;;15.27;3.00;;;24.50;99.90;;;;;;5052187;28;20031;-75
2023/08/12 12:29:06;;;;;;;17.02;5.22;;;24.50;99.90;;;;;;5046985;28;20044;-74
2023/08/12 12:31:34;;;;;;;12.48;3.13;;;24.70;99.90;;;;;;5045525;28;20538;-74
2023/08/12 12:34:04;;;;;;;12.73;3.03;;;24.60;99.90;;;;;;5049164;28;20120;-76